createdAt,value
2022-09-07T00:01:23.248Z,16.50
2022-09-07T00:03:51.006Z,22.35
2022-09-07T00:06:18.516Z,21.58
2022-09-07T00:08:46.012Z,20.77
2022-09-07T00:11:15.798Z,17.40
2022-09-07T00:13:46.184Z,18.15
2022-09-07T00:16:14.986Z,19.33
2022-09-07T00:18:46.070Z,18.45
2022-09-07T00:21:14.346Z,18.88
2022-09-07T00:23:41.969Z,21.10
2022-09-07T00:26:10.717Z,19.75
2022-09-07T00:28:38.413Z,19.08
2022-09-07T00:31:10.436Z,20.17
2022-09-07T00:33:37.927Z,20.35
2022-09-07T00:36:05.616Z,20.77
2022-09-07T00:38:33.045Z,22.10
2022-09-07T00:41:00.668Z,23.50
2022-09-07T00:43:32.779Z,23.27
2022-09-07T00:46:00.420Z,21.63
2022-09-07T00:48:31.155Z,20.85
2022-09-07T00:51:01.647Z,19.95
2022-09-07T00:53:31.495Z,22.75
2022-09-07T00:56:02.712Z,19.80
2022-09-07T00:58:30.851Z,18.65
2022-09-07T01:00:58.368Z,18.60
2022-09-07T01:03:27.792Z,18.42
2022-09-07T01:05:58.213Z,17.65
2022-09-07T01:08:25.726Z,17.17
2022-09-07T01:10:53.311Z,17.98
2022-09-07T01:13:20.732Z,17.40
2022-09-07T01:15:52.907Z,17.45
2022-09-07T01:18:24.762Z,20.90
2022-09-07T01:21:07.143Z,22.13
2022-09-07T01:23:53.066Z,20.40
2022-09-07T01:26:39.462Z,18.52
2022-09-07T01:29:11.436Z,19.02
2022-09-07T01:31:43.467Z,19.50
2022-09-07T01:34:13.756Z,16.50
2022-09-07T01:36:45.990Z,18.50
2022-09-07T01:39:13.428Z,17.70
2022-09-07T01:41:43.982Z,19.73
2022-09-07T01:44:13.820Z,16.65
2022-09-07T01:46:44.715Z,17.75
2022-09-07T01:49:12.906Z,17.88
2022-09-07T01:51:43.219Z,18.27
2022-09-07T01:54:12.390Z,18.77
2022-09-07T01:56:41.867Z,17.75
2022-09-07T01:59:11.671Z,19.85
2022-09-07T02:01:42.416Z,18.80
2022-09-07T02:04:11.544Z,18.27
2022-09-07T02:06:42.476Z,22.08
2022-09-07T02:09:12.068Z,24.20
2022-09-07T02:11:40.862Z,21.00
2022-09-07T02:14:11.662Z,23.45
2022-09-07T02:16:42.415Z,22.85
2022-09-07T02:19:11.096Z,23.23
2022-09-07T02:21:39.916Z,21.95
2022-09-07T02:24:09.431Z,21.92
2022-09-07T02:26:39.353Z,23.23
2022-09-07T02:29:06.869Z,23.08
2022-09-07T02:31:34.437Z,25.50
2022-09-07T02:34:03.332Z,22.42
2022-09-07T02:36:34.451Z,22.52
2022-09-07T02:39:01.907Z,22.48
2022-09-07T02:41:30.923Z,24.02
2022-09-07T02:43:58.806Z,23.52
2022-09-07T02:46:31.651Z,23.70
2022-09-07T02:49:06.463Z,23.73
2022-09-07T02:51:40.665Z,19.92
2022-09-07T02:54:13.877Z,20.48
2022-09-07T02:56:46.587Z,19.40
2022-09-07T02:59:20.040Z,19.45
2022-09-07T03:01:52.550Z,19.90
2022-09-07T03:04:24.760Z,19.27
2022-09-07T03:06:55.814Z,19.98
2022-09-07T03:11:51.299Z,18.48
2022-09-07T03:14:19.613Z,20.73
2022-09-07T03:16:48.352Z,20.05
2022-09-07T03:19:15.952Z,19.63
2022-09-07T03:21:43.629Z,24.13
2022-09-07T03:24:12.461Z,19.42
2022-09-07T03:26:41.071Z,17.48
2022-09-07T03:29:08.487Z,17.73
2022-09-07T03:31:36.206Z,18.52
2022-09-07T03:34:03.959Z,21.88
2022-09-07T03:36:31.626Z,20.27
2022-09-07T03:38:59.345Z,19.20
2022-09-07T03:41:28.700Z,19.88
2022-09-07T03:43:57.097Z,17.55
2022-09-07T03:46:24.594Z,19.92
2022-09-07T03:48:52.749Z,18.73
2022-09-07T03:51:20.220Z,19.38
2022-09-07T03:53:47.809Z,17.60
2022-09-07T03:56:16.070Z,21.63
2022-09-07T03:58:45.202Z,17.17
2022-09-07T04:01:15.304Z,15.40
2022-09-07T04:03:43.019Z,15.07
2022-09-07T04:06:10.797Z,15.25
2022-09-07T04:08:39.005Z,14.85
2022-09-07T04:11:07.094Z,13.93
2022-09-07T04:13:35.561Z,18.52
2022-09-07T04:16:11.576Z,22.10
2022-09-07T04:18:38.999Z,24.45
2022-09-07T04:21:06.577Z,22.90
2022-09-07T04:23:34.045Z,25.15
2022-09-07T04:26:01.533Z,26.23
2022-09-07T04:28:28.991Z,29.92
2022-09-07T04:30:56.458Z,31.27
2022-09-07T04:33:25.267Z,31.38
2022-09-07T04:35:52.694Z,32.92
2022-09-07T04:38:20.145Z,31.85
2022-09-07T04:40:47.573Z,34.45
2022-09-07T04:43:15.003Z,35.53
2022-09-07T04:45:42.478Z,40.33
2022-09-07T04:48:09.935Z,32.38
2022-09-07T04:50:38.709Z,31.15
2022-09-07T04:53:06.135Z,30.55
2022-09-07T04:55:33.632Z,31.77
2022-09-07T04:58:01.064Z,28.77
2022-09-07T05:00:28.875Z,30.42
2022-09-07T05:02:56.321Z,33.88
2022-09-07T05:05:23.750Z,29.83
2022-09-07T05:07:52.526Z,31.05
2022-09-07T05:10:19.955Z,26.83
2022-09-07T05:12:47.472Z,29.23
2022-09-07T05:15:15.024Z,32.60
2022-09-07T05:17:42.464Z,32.05
2022-09-07T05:20:10.331Z,33.28
2022-09-07T05:22:40.979Z,28.77
2022-09-07T05:25:10.196Z,29.77
2022-09-07T05:27:37.608Z,32.88
2022-09-07T05:30:06.290Z,29.70
2022-09-07T05:32:34.162Z,32.67
2022-09-07T05:35:01.567Z,26.88
2022-09-07T05:37:29.006Z,30.17
2022-09-07T05:39:56.887Z,27.60
2022-09-07T05:42:26.724Z,28.20
2022-09-07T05:44:54.195Z,27.90
2022-09-07T05:47:21.633Z,24.90
2022-09-07T05:49:50.340Z,28.95
2022-09-07T05:52:18.529Z,29.13
2022-09-07T05:54:47.101Z,31.95
2022-09-07T05:57:15.065Z,26.02
2022-09-07T05:59:43.923Z,28.13
2022-09-07T06:02:13.863Z,29.20
2022-09-07T06:04:41.318Z,29.98
2022-09-07T06:07:24.368Z,27.42
2022-09-07T06:12:39.347Z,24.67
2022-09-07T06:15:09.022Z,26.40
2022-09-07T06:17:36.465Z,29.48
2022-09-07T06:20:04.639Z,25.15
2022-09-07T06:22:32.095Z,24.80
2022-09-07T06:24:59.830Z,26.75
2022-09-07T06:27:27.484Z,26.38
2022-09-07T06:29:54.986Z,25.52
2022-09-07T06:35:11.329Z,26.38
2022-09-07T06:37:38.990Z,25.92
2022-09-07T06:40:07.538Z,24.48
2022-09-07T06:42:35.083Z,26.92
2022-09-07T06:45:02.498Z,24.65
2022-09-07T06:47:31.320Z,26.27
2022-09-07T06:49:59.050Z,25.02
2022-09-07T06:52:26.503Z,24.83
2022-09-07T06:55:01.426Z,24.25
2022-09-07T06:57:29.168Z,25.23
2022-09-07T06:59:56.628Z,25.05
2022-09-07T07:02:24.076Z,24.27
2022-09-07T07:04:52.839Z,29.13
2022-09-07T07:07:20.275Z,28.65
2022-09-07T07:09:47.727Z,24.27
2022-09-07T07:14:47.436Z,24.48
2022-09-07T07:17:14.902Z,24.33
2022-09-07T07:19:42.366Z,25.52
2022-09-07T07:22:35.601Z,23.35
2022-09-07T07:24:58.913Z,26.50
2022-09-07T07:27:26.382Z,27.08
2022-09-07T07:29:54.454Z,23.73
2022-09-07T07:32:21.900Z,24.85
2022-09-07T07:34:49.273Z,24.90
2022-09-07T07:37:18.060Z,21.83
2022-09-07T07:42:33.859Z,23.80
2022-09-07T07:47:50.015Z,23.42
2022-09-07T07:50:33.766Z,27.48
2022-09-07T07:55:50.551Z,28.80
2022-09-07T07:58:18.118Z,24.88
2022-09-07T08:01:01.011Z,23.35
2022-09-07T08:03:28.891Z,21.95
2022-09-07T08:05:56.245Z,24.30
2022-09-07T08:08:25.148Z,22.88
2022-09-07T08:10:52.903Z,28.88
2022-09-07T08:13:21.269Z,25.83
2022-09-07T08:15:48.896Z,25.17
2022-09-07T08:18:17.058Z,29.15
2022-09-07T08:20:44.462Z,26.50
2022-09-07T08:23:12.281Z,24.60
2022-09-07T08:25:49.432Z,28.70
2022-09-07T08:28:16.983Z,24.73
2022-09-07T08:30:44.358Z,24.83
2022-09-07T08:33:11.725Z,27.27
2022-09-07T08:35:39.120Z,24.27
2022-09-07T08:38:06.553Z,26.70
2022-09-07T08:40:36.851Z,22.90
2022-09-07T08:43:07.623Z,22.10
2022-09-07T08:45:36.875Z,22.83
2022-09-07T08:48:05.699Z,23.33
2022-09-07T08:50:34.602Z,23.55
2022-09-07T08:53:03.651Z,26.30
2022-09-07T08:55:32.734Z,28.70
2022-09-07T08:58:04.867Z,24.15
2022-09-07T09:00:35.939Z,23.80
2022-09-07T09:05:56.141Z,21.08
2022-09-07T09:08:31.050Z,24.70
2022-09-07T09:11:02.155Z,21.30
2022-09-07T09:13:36.117Z,24.00
2022-09-07T09:16:06.495Z,22.80
2022-09-07T09:18:41.645Z,21.95
2022-09-07T09:21:13.419Z,23.52
2022-09-07T09:23:42.004Z,26.77
2022-09-07T09:26:13.153Z,23.08
2022-09-07T09:28:40.672Z,28.60
2022-09-07T09:31:16.552Z,22.60
2022-09-07T09:33:43.976Z,22.27
2022-09-07T09:36:24.366Z,24.70
2022-09-07T09:38:51.755Z,20.95
2022-09-07T09:41:19.181Z,19.80
2022-09-07T09:43:47.990Z,20.10
2022-09-07T09:46:21.646Z,20.33
2022-09-07T09:48:55.594Z,18.55
2022-09-07T09:54:20.470Z,20.00
2022-09-07T09:56:48.984Z,19.83
2022-09-07T10:05:26.854Z,17.63
2022-09-07T10:07:54.649Z,19.80
2022-09-07T10:10:22.229Z,20.58
2022-09-07T10:12:53.074Z,20.17
2022-09-07T10:17:49.708Z,19.30
2022-09-07T10:20:30.951Z,20.00
2022-09-07T10:22:59.242Z,19.02
2022-09-07T10:25:30.959Z,20.88
2022-09-07T10:28:02.992Z,18.65
2022-09-07T10:30:31.849Z,19.00
2022-09-07T10:33:02.423Z,17.35
2022-09-07T10:35:32.402Z,15.75
2022-09-07T10:38:03.913Z,14.70
2022-09-07T10:40:34.049Z,15.57
2022-09-07T10:43:22.606Z,15.00
2022-09-07T10:46:00.254Z,15.07
2022-09-07T10:48:30.947Z,15.88
2022-09-07T10:51:07.372Z,15.57
2022-09-07T10:53:43.798Z,15.18
2022-09-07T10:56:12.042Z,13.90
2022-09-07T10:59:06.590Z,14.35
2022-09-07T11:01:39.839Z,16.60
2022-09-07T11:04:27.321Z,13.38
2022-09-07T11:07:03.589Z,12.88
2022-09-07T11:09:42.452Z,12.57
2022-09-07T11:12:10.573Z,13.75
2022-09-07T11:14:42.330Z,13.55
2022-09-07T11:17:14.487Z,14.45
2022-09-07T11:19:44.942Z,14.65
2022-09-07T11:22:19.921Z,12.60
2022-09-07T11:25:29.222Z,14.38
2022-09-07T11:27:39.406Z,14.10
2022-09-07T11:30:14.527Z,14.05
2022-09-07T11:32:46.611Z,13.57
2022-09-07T11:35:20.079Z,13.43
2022-09-07T11:37:54.430Z,12.88
2022-09-07T11:40:26.267Z,12.60
2022-09-07T11:42:55.739Z,15.68
2022-09-07T11:45:26.245Z,14.57
2022-09-07T11:47:56.960Z,14.73
2022-09-07T11:52:55.004Z,10.57
2022-09-07T11:58:22.095Z,11.52
2022-09-07T12:00:56.989Z,11.93
2022-09-07T12:03:39.393Z,11.52
2022-09-07T12:06:21.362Z,9.70
2022-09-07T12:08:56.817Z,10.23
2022-09-07T12:11:42.205Z,9.88
2022-09-07T12:14:13.486Z,10.18
2022-09-07T12:16:51.324Z,10.35
2022-09-07T12:19:20.148Z,11.68
2022-09-07T12:21:50.260Z,10.05
2022-09-07T12:24:36.342Z,8.70
2022-09-07T12:27:05.792Z,9.90
2022-09-07T12:29:33.282Z,10.57
2022-09-07T12:32:53.538Z,10.68
2022-09-07T12:34:53.335Z,10.00
2022-09-07T12:37:41.833Z,9.25
2022-09-07T12:40:27.699Z,8.27
2022-09-07T12:43:10.164Z,10.38
2022-09-07T12:45:52.645Z,8.77
2022-09-07T12:48:27.433Z,10.27
2022-09-07T12:50:58.738Z,11.70
2022-09-07T12:53:29.728Z,10.02
2022-09-07T12:56:17.823Z,8.00
2022-09-07T12:58:51.880Z,8.05
2022-09-07T13:01:30.518Z,8.50
2022-09-07T13:04:05.680Z,9.23
2022-09-07T13:09:31.022Z,7.63
2022-09-07T13:11:58.768Z,7.93
2022-09-07T13:14:26.756Z,10.15
2022-09-07T13:17:16.457Z,6.43
2022-09-07T13:20:02.943Z,7.07
2022-09-07T13:22:48.776Z,5.50
2022-09-07T13:25:31.117Z,5.25
2022-09-07T13:28:00.766Z,4.32
2022-09-07T13:30:38.360Z,6.77
2022-09-07T13:33:24.695Z,4.57
2022-09-07T13:35:55.334Z,5.90
2022-09-07T13:38:22.769Z,5.22
2022-09-07T13:40:52.052Z,6.18
2022-09-07T13:43:22.408Z,5.50
2022-09-07T13:45:59.678Z,6.47
2022-09-07T13:48:29.766Z,5.38
2022-09-07T13:50:59.983Z,5.93
2022-09-07T13:53:31.421Z,5.03
2022-09-07T13:56:04.315Z,6.82
2022-09-07T13:58:36.529Z,5.30
2022-09-07T14:01:05.778Z,4.35
2022-09-07T14:03:37.719Z,4.80
2022-09-07T14:06:27.069Z,6.15
2022-09-07T14:08:55.115Z,4.22
2022-09-07T14:11:23.573Z,5.97
2022-09-07T14:14:05.877Z,5.95
2022-09-07T14:16:35.007Z,6.55
2022-09-07T14:19:02.664Z,5.10
2022-09-07T14:21:30.098Z,4.78
2022-09-07T14:24:03.230Z,4.57
2022-09-07T14:26:30.666Z,5.60
2022-09-07T14:28:58.135Z,4.32
2022-09-07T14:31:25.906Z,4.05
2022-09-07T14:33:56.699Z,4.30
2022-09-07T14:36:44.264Z,6.53
2022-09-07T14:39:13.237Z,3.80
2022-09-07T14:41:41.933Z,4.22
2022-09-07T14:44:27.439Z,5.25
2022-09-07T14:46:57.010Z,4.40
2022-09-07T14:49:26.023Z,4.28
2022-09-07T14:51:54.070Z,5.93
2022-09-07T14:54:22.363Z,4.63
2022-09-07T14:57:01.693Z,6.10
2022-09-07T14:59:35.412Z,5.55
2022-09-07T15:02:22.253Z,5.00
2022-09-07T15:04:53.045Z,3.72
2022-09-07T15:07:29.937Z,4.63
2022-09-07T15:10:12.862Z,4.30
2022-09-07T15:12:42.005Z,4.32
2022-09-07T15:15:21.850Z,4.05
2022-09-07T15:17:49.506Z,3.97
2022-09-07T15:20:35.726Z,5.55
2022-09-07T15:23:04.744Z,4.25
2022-09-07T15:25:32.266Z,7.13
2022-09-07T15:28:00.096Z,4.70
2022-09-07T15:30:27.581Z,3.38
2022-09-07T15:32:56.873Z,6.07
2022-09-07T15:35:24.701Z,6.70
2022-09-07T15:38:01.819Z,5.38
2022-09-07T15:40:33.277Z,5.28
2022-09-07T15:43:02.038Z,3.22
2022-09-07T15:45:32.507Z,3.63
2022-09-07T15:47:59.906Z,5.20
2022-09-07T15:50:27.456Z,6.10
2022-09-07T15:52:56.190Z,5.35
2022-09-07T15:55:24.286Z,6.25
2022-09-07T15:58:02.181Z,7.90
2022-09-07T16:00:36.348Z,4.68
2022-09-07T16:03:05.195Z,4.05
2022-09-07T16:05:33.393Z,8.85
2022-09-07T16:10:54.145Z,5.43
2022-09-07T16:13:23.913Z,5.35
2022-09-07T16:15:51.760Z,4.70
2022-09-07T16:18:19.251Z,4.90
2022-09-07T16:20:47.311Z,7.22
2022-09-07T16:23:17.355Z,5.07
2022-09-07T16:25:55.914Z,5.88
2022-09-07T16:28:23.362Z,5.07
2022-09-07T16:30:50.767Z,3.65
2022-09-07T16:33:18.233Z,6.45
2022-09-07T16:35:59.113Z,4.97
2022-09-07T16:38:44.482Z,6.32
2022-09-07T16:41:13.385Z,5.13
2022-09-07T16:43:40.816Z,5.32
2022-09-07T16:46:09.054Z,4.97
2022-09-07T16:48:36.863Z,6.53
2022-09-07T16:51:04.912Z,4.60
2022-09-07T16:53:34.919Z,4.95
2022-09-07T16:56:02.978Z,5.90
2022-09-07T16:58:38.302Z,3.60
2022-09-07T17:01:06.421Z,5.07
2022-09-07T17:03:34.317Z,4.78
2022-09-07T17:06:02.017Z,5.30
2022-09-07T17:08:29.944Z,4.65
2022-09-07T17:11:01.178Z,3.13
2022-09-07T17:13:29.392Z,3.97
2022-09-07T17:16:02.217Z,5.28
2022-09-07T17:21:17.133Z,2.63
2022-09-07T17:23:53.974Z,3.70
2022-09-07T17:26:26.651Z,3.55
2022-09-07T17:28:55.721Z,5.72
2022-09-07T17:34:13.481Z,3.80
2022-09-07T17:36:42.549Z,3.88
2022-09-07T17:39:18.872Z,2.72
2022-09-07T17:41:48.286Z,4.20
2022-09-07T17:44:16.047Z,10.68
2022-09-07T17:46:43.502Z,3.45
2022-09-07T17:49:12.226Z,5.70
2022-09-07T17:51:40.143Z,9.65
2022-09-07T17:54:11.687Z,4.53
2022-09-07T17:56:39.687Z,3.58
2022-09-07T18:01:56.275Z,2.97
2022-09-07T18:04:24.194Z,3.80
2022-09-07T18:06:51.971Z,7.38
2022-09-07T18:09:19.570Z,3.25
2022-09-07T18:11:48.972Z,4.50
2022-09-07T18:14:18.876Z,4.93
2022-09-07T18:16:47.911Z,4.68
2022-09-07T18:19:16.932Z,3.75
2022-09-07T18:21:45.463Z,5.43
2022-09-07T18:24:16.443Z,5.15
2022-09-07T18:26:44.712Z,4.97
2022-09-07T18:29:28.789Z,4.65
2022-09-07T18:31:58.743Z,3.83
2022-09-07T18:34:26.261Z,5.70
2022-09-07T18:36:54.942Z,4.93
2022-09-07T18:39:22.707Z,5.45
2022-09-07T18:41:53.313Z,6.13
2022-09-07T18:47:17.584Z,5.55
2022-09-07T18:49:48.788Z,8.20
2022-09-07T18:55:04.693Z,6.00
2022-09-07T18:57:32.104Z,6.25
2022-09-07T19:00:00.833Z,5.07
2022-09-07T19:02:28.365Z,7.40
2022-09-07T19:07:43.288Z,8.63
2022-09-07T19:10:12.304Z,5.15
2022-09-07T19:12:43.752Z,5.35
2022-09-07T19:15:14.602Z,4.78
2022-09-07T19:17:42.058Z,5.00
2022-09-07T19:20:10.202Z,4.85
2022-09-07T19:22:37.704Z,6.85
2022-09-07T19:25:06.013Z,6.65
2022-09-07T19:27:33.825Z,5.15
2022-09-07T19:30:01.431Z,5.53
2022-09-07T19:32:30.376Z,7.63
2022-09-07T19:34:57.757Z,5.25
2022-09-07T19:37:25.606Z,5.57
2022-09-07T19:39:54.970Z,9.75
2022-09-07T19:42:23.528Z,8.10
2022-09-07T19:44:50.966Z,7.43
2022-09-07T19:47:18.570Z,6.32
2022-09-07T19:49:47.450Z,6.43
2022-09-07T19:52:15.338Z,12.73
2022-09-07T19:54:42.801Z,7.57
2022-09-07T19:57:10.311Z,6.47
2022-09-07T19:59:37.712Z,7.85
2022-09-07T20:02:06.088Z,8.63
2022-09-07T20:04:33.588Z,9.13
2022-09-07T20:07:02.405Z,9.93
2022-09-07T20:09:29.852Z,8.05
2022-09-07T20:11:57.251Z,7.68
2022-09-07T20:14:24.638Z,9.15
2022-09-07T20:16:52.051Z,7.75
2022-09-07T20:19:19.516Z,7.75
2022-09-07T20:21:48.021Z,8.02
2022-09-07T20:24:21.991Z,9.85
2022-09-07T20:26:49.526Z,7.70
2022-09-07T20:29:27.184Z,7.53
2022-09-07T20:31:55.576Z,7.95
2022-09-07T20:34:22.987Z,7.75
2022-09-07T20:36:50.440Z,8.43
2022-09-07T20:39:19.543Z,8.55
2022-09-07T20:41:46.992Z,8.30
2022-09-07T20:44:15.080Z,7.18
2022-09-07T20:46:42.619Z,6.55
2022-09-07T20:49:10.129Z,8.45
2022-09-07T20:51:37.791Z,7.47
2022-09-07T20:54:05.255Z,7.00
2022-09-07T20:56:34.074Z,6.75
2022-09-07T20:59:03.232Z,7.00
2022-09-07T21:01:31.286Z,8.40
2022-09-07T21:04:00.366Z,7.72
2022-09-07T21:06:28.455Z,6.88
2022-09-07T21:08:56.153Z,7.90
2022-09-07T21:11:24.595Z,7.25
2022-09-07T21:13:57.036Z,7.95
2022-09-07T21:16:26.009Z,7.60
2022-09-07T21:18:54.780Z,8.50
2022-09-07T21:21:22.931Z,8.82
2022-09-07T21:23:54.915Z,9.80
2022-09-07T21:26:22.503Z,8.38
2022-09-07T21:28:56.032Z,10.52
2022-09-07T21:31:23.673Z,8.10
2022-09-07T21:33:54.313Z,8.75
2022-09-07T21:36:21.803Z,9.18
2022-09-07T21:38:49.925Z,8.30
2022-09-07T21:41:19.145Z,10.90
2022-09-07T21:43:46.828Z,7.32
2022-09-07T21:46:17.017Z,9.55
2022-09-07T21:48:45.390Z,6.93
2022-09-07T21:51:13.083Z,7.28
2022-09-07T21:53:40.477Z,8.32
2022-09-07T21:56:08.906Z,7.75
2022-09-07T21:58:36.340Z,9.80
2022-09-07T22:01:10.560Z,9.48
2022-09-07T22:03:40.170Z,9.70
2022-09-07T22:06:07.619Z,9.90
2022-09-07T22:08:35.585Z,9.50
2022-09-07T22:11:06.789Z,6.32
2022-09-07T22:13:34.430Z,7.82
2022-09-07T22:16:02.181Z,9.90
2022-09-07T22:18:30.529Z,6.30
2022-09-07T22:21:06.440Z,7.03
2022-09-07T22:23:34.545Z,6.85
2022-09-07T22:26:02.369Z,6.95
2022-09-07T22:28:30.398Z,9.10
2022-09-07T22:30:57.883Z,6.95
2022-09-07T22:33:25.343Z,6.20
2022-09-07T22:35:52.730Z,8.30
2022-09-07T22:38:21.482Z,6.90
2022-09-07T22:40:48.854Z,6.60
2022-09-07T22:43:16.236Z,7.75
2022-09-07T22:45:43.596Z,6.53
2022-09-07T22:48:10.985Z,7.30
2022-09-07T22:50:38.336Z,7.78
2022-09-07T22:53:05.753Z,7.78
2022-09-07T22:55:38.751Z,10.77
2022-09-07T22:58:06.176Z,6.57
2022-09-07T23:00:36.090Z,6.50
2022-09-07T23:03:03.731Z,10.20
2022-09-07T23:05:31.380Z,6.43
2022-09-07T23:07:58.790Z,7.80
2022-09-07T23:10:26.221Z,6.63
2022-09-07T23:12:55.175Z,6.05
2022-09-07T23:15:22.662Z,6.47
2022-09-07T23:17:51.791Z,6.40
2022-09-07T23:20:19.902Z,9.30
2022-09-07T23:22:47.287Z,7.72
2022-09-07T23:25:14.823Z,9.70
2022-09-07T23:27:42.278Z,7.47
2022-09-07T23:30:12.187Z,8.23
2022-09-07T23:32:39.542Z,6.55
2022-09-07T23:35:07.278Z,8.00
2022-09-07T23:37:34.685Z,6.43
2022-09-07T23:40:02.230Z,6.53
2022-09-07T23:42:29.726Z,7.75
2022-09-07T23:44:57.166Z,9.25
2022-09-07T23:47:27.223Z,6.80
2022-09-07T23:49:54.638Z,6.68
2022-09-07T23:52:22.008Z,6.22
2022-09-07T23:54:49.395Z,10.40
2022-09-07T23:57:16.802Z,6.57
2022-09-07T23:59:44.193Z,7.43
